createdAt,value
2018-08-03T00:01:19.277Z,97440.00
2018-08-03T00:03:50.089Z,97440.00
2018-08-03T00:06:20.463Z,97440.00
2018-08-03T00:08:51.243Z,97436.00
2018-08-03T00:11:21.864Z,97437.00
2018-08-03T00:13:52.531Z,97433.00
2018-08-03T00:16:23.281Z,97427.00
2018-08-03T00:18:53.872Z,97428.00
2018-08-03T00:21:24.155Z,97422.00
2018-08-03T00:23:54.290Z,97424.00
2018-08-03T00:26:24.505Z,97419.00
2018-08-03T00:28:54.878Z,97416.00
2018-08-03T00:31:25.121Z,97414.00
2018-08-03T00:33:55.574Z,97412.00
2018-08-03T00:36:25.897Z,97410.00
2018-08-03T00:38:56.368Z,97410.00
2018-08-03T00:41:26.814Z,97410.00
2018-08-03T00:44:04.552Z,97413.00
2018-08-03T00:46:35.035Z,97406.00
2018-08-03T00:49:06.605Z,97409.00
2018-08-03T00:51:36.798Z,97404.00
2018-08-03T00:54:07.392Z,97407.00
2018-08-03T00:56:38.132Z,97416.00
2018-08-03T00:59:08.635Z,97415.00
2018-08-03T01:01:39.400Z,97423.00
2018-08-03T01:04:09.995Z,97422.00
2018-08-03T01:06:40.436Z,97423.00
2018-08-03T01:09:15.926Z,97422.00
2018-08-03T01:11:46.488Z,97425.00
2018-08-03T01:14:17.204Z,97422.00
2018-08-03T01:17:05.547Z,97420.00
2018-08-03T01:19:36.336Z,97423.00
2018-08-03T01:22:06.771Z,97422.00
2018-08-03T01:24:37.393Z,97422.00
2018-08-03T01:27:30.583Z,97423.00
2018-08-03T01:30:05.219Z,97422.00
2018-08-03T01:32:36.095Z,97425.00
2018-08-03T01:35:06.587Z,97423.00
2018-08-03T01:37:37.275Z,97416.00
2018-08-03T01:40:19.562Z,97415.00
2018-08-03T01:42:50.221Z,97424.00
2018-08-03T01:45:20.652Z,97421.00
2018-08-03T01:48:08.172Z,97427.00
2018-08-03T01:50:38.554Z,97425.00
2018-08-03T01:53:09.144Z,97421.00
2018-08-03T01:55:39.728Z,97422.00
2018-08-03T01:58:10.126Z,97418.00
2018-08-03T02:00:40.563Z,97416.00
2018-08-03T02:03:11.078Z,97411.00
2018-08-03T02:05:41.578Z,97406.00
2018-08-03T02:08:12.088Z,97400.00
2018-08-03T02:10:42.731Z,97406.00
2018-08-03T02:13:13.158Z,97404.00
2018-08-03T02:15:43.731Z,97399.00
2018-08-03T02:18:14.340Z,97396.00
2018-08-03T02:20:44.919Z,97396.00
2018-08-03T02:23:15.472Z,97395.00
2018-08-03T02:25:45.911Z,97396.00
2018-08-03T02:28:16.337Z,97397.00
2018-08-03T02:30:46.814Z,97393.00
2018-08-03T02:33:17.400Z,97398.00
2018-08-03T02:35:48.072Z,97392.00
2018-08-03T02:38:18.736Z,97389.00
2018-08-03T02:40:49.355Z,97389.00
2018-08-03T02:43:20.046Z,97388.00
2018-08-03T02:45:50.519Z,97384.00
2018-08-03T02:51:22.380Z,97382.00
2018-08-03T02:53:53.199Z,97386.00
2018-08-03T02:56:24.258Z,97381.00
2018-08-03T02:58:55.264Z,97388.00
2018-08-03T03:01:26.249Z,97387.00
2018-08-03T03:03:56.923Z,97394.00
2018-08-03T03:06:28.003Z,97388.00
2018-08-03T03:08:58.971Z,97395.00
2018-08-03T03:11:29.547Z,97395.00
2018-08-03T03:14:00.122Z,97393.00
2018-08-03T03:16:30.519Z,97391.00
2018-08-03T03:19:00.848Z,97398.00
2018-08-03T03:21:31.303Z,97401.00
2018-08-03T03:24:01.836Z,97398.00
2018-08-03T03:26:32.348Z,97402.00
2018-08-03T03:29:02.992Z,97405.00
2018-08-03T03:31:33.872Z,97408.00
2018-08-03T03:34:04.333Z,97408.00
2018-08-03T03:36:35.140Z,97409.00
2018-08-03T03:39:09.771Z,97403.00
2018-08-03T03:41:50.588Z,97405.00
2018-08-03T03:44:21.065Z,97406.00
2018-08-03T03:46:51.562Z,97404.00
2018-08-03T03:49:22.079Z,97402.00
2018-08-03T03:51:52.548Z,97403.00
2018-08-03T03:54:22.994Z,97399.00
2018-08-03T03:56:53.485Z,97398.00
2018-08-03T03:59:23.863Z,97398.00
2018-08-03T04:01:54.279Z,97399.00
2018-08-03T04:04:24.724Z,97399.00
2018-08-03T04:06:55.407Z,97405.00
2018-08-03T04:09:39.525Z,97404.00
2018-08-03T04:12:10.385Z,97406.00
2018-08-03T04:14:41.131Z,97404.00
2018-08-03T04:17:11.656Z,97405.00
2018-08-03T04:19:41.931Z,97401.00
2018-08-03T04:22:12.448Z,97401.00
2018-08-03T04:24:42.994Z,97404.00
2018-08-03T04:27:13.667Z,97408.00
2018-08-03T04:29:44.126Z,97405.00
2018-08-03T04:32:14.251Z,97412.00
2018-08-03T04:34:44.619Z,97408.00
2018-08-03T04:37:18.823Z,97410.00
2018-08-03T04:39:49.202Z,97416.00
2018-08-03T04:42:19.870Z,97418.00
2018-08-03T04:44:50.386Z,97414.00
2018-08-03T04:47:21.319Z,97415.00
2018-08-03T04:49:51.850Z,97416.00
2018-08-03T04:52:22.398Z,97412.00
2018-08-03T04:54:52.827Z,97416.00
2018-08-03T04:57:23.219Z,97416.00
2018-08-03T04:59:53.630Z,97413.00
2018-08-03T05:02:24.081Z,97414.00
2018-08-03T05:04:54.612Z,97416.00
2018-08-03T05:07:24.975Z,97417.00
2018-08-03T05:09:55.511Z,97409.00
2018-08-03T05:12:25.968Z,97409.00
2018-08-03T05:14:56.435Z,97410.00
2018-08-03T05:17:26.923Z,97411.00
2018-08-03T05:19:57.424Z,97413.00
2018-08-03T05:22:27.892Z,97403.00
2018-08-03T05:24:58.334Z,97406.00
2018-08-03T05:27:28.884Z,97408.00
2018-08-03T05:29:59.299Z,97408.00
2018-08-03T05:32:29.944Z,97405.00
2018-08-03T05:35:00.417Z,97410.00
2018-08-03T05:37:30.971Z,97410.00
2018-08-03T05:40:01.477Z,97408.00
2018-08-03T05:42:36.070Z,97404.00
2018-08-03T05:45:07.367Z,97399.00
2018-08-03T05:47:37.811Z,97402.00
2018-08-03T05:50:12.776Z,97397.00
2018-08-03T05:52:43.293Z,97400.00
2018-08-03T05:55:24.020Z,97399.00
2018-08-03T05:57:54.455Z,97402.00
2018-08-03T06:00:25.542Z,97405.00
2018-08-03T06:02:56.033Z,97399.00
2018-08-03T06:05:26.743Z,97403.00
2018-08-03T06:07:57.264Z,97402.00
2018-08-03T06:10:27.879Z,97402.00
2018-08-03T06:15:58.984Z,97401.00
2018-08-03T06:18:29.448Z,97399.00
2018-08-03T06:21:08.223Z,97405.00
2018-08-03T06:23:38.830Z,97402.00
2018-08-03T06:26:09.756Z,97400.00
2018-08-03T06:28:40.319Z,97397.00
2018-08-03T06:31:10.823Z,97398.00
2018-08-03T06:33:41.308Z,97396.00
2018-08-03T06:36:19.519Z,97405.00
2018-08-03T06:38:50.199Z,97404.00
2018-08-03T06:41:20.871Z,97404.00
2018-08-03T06:43:52.399Z,97403.00
2018-08-03T06:46:22.860Z,97396.00
2018-08-03T06:48:53.583Z,97393.00
2018-08-03T06:51:26.799Z,97396.00
2018-08-03T06:53:57.274Z,97392.00
2018-08-03T06:56:29.763Z,97388.00
2018-08-03T06:59:00.187Z,97390.00
2018-08-03T07:01:32.896Z,97392.00
2018-08-03T07:04:04.456Z,97396.00
2018-08-03T07:06:35.776Z,97397.00
2018-08-03T07:09:11.761Z,97393.00
2018-08-03T07:11:42.438Z,97396.00
2018-08-03T07:14:13.121Z,97387.00
2018-08-03T07:16:46.693Z,97399.00
2018-08-03T07:19:17.675Z,97399.00
2018-08-03T07:21:48.200Z,97404.00
2018-08-03T07:24:18.602Z,97400.00
2018-08-03T07:26:49.472Z,97399.00
2018-08-03T07:29:20.074Z,97404.00
2018-08-03T07:31:50.748Z,97403.00
2018-08-03T07:34:21.323Z,97398.00
2018-08-03T07:36:52.389Z,97396.00
2018-08-03T07:39:22.973Z,97396.00
2018-08-03T07:41:55.443Z,97394.00
2018-08-03T07:44:25.790Z,97400.00
2018-08-03T07:46:56.196Z,97397.00
2018-08-03T07:49:26.734Z,97396.00
2018-08-03T07:51:57.324Z,97395.00
2018-08-03T07:54:27.337Z,97401.00
2018-08-03T07:56:57.647Z,97385.00
2018-08-03T07:59:28.186Z,97400.00
2018-08-03T08:01:58.850Z,97397.00
2018-08-03T08:04:29.230Z,97393.00
2018-08-03T08:06:59.607Z,97396.00
2018-08-03T08:09:30.219Z,97390.00
2018-08-03T08:12:00.875Z,97391.00
2018-08-03T08:14:31.290Z,97387.00
2018-08-03T08:17:01.798Z,97381.00
2018-08-03T08:19:32.080Z,97388.00
2018-08-03T08:22:02.619Z,97381.00
2018-08-03T08:24:33.312Z,97385.00
2018-08-03T08:27:03.757Z,97385.00
2018-08-03T08:29:34.412Z,97381.00
2018-08-03T08:32:04.884Z,97371.00
2018-08-03T08:34:35.324Z,97373.00
2018-08-03T08:37:05.948Z,97376.00
2018-08-03T08:39:36.326Z,97381.00
2018-08-03T08:42:07.160Z,97379.00
2018-08-03T08:44:37.876Z,97383.00
2018-08-03T08:47:07.655Z,97378.00
2018-08-03T08:49:38.083Z,97370.00
2018-08-03T08:52:08.409Z,97372.00
2018-08-03T08:54:39.429Z,97369.00
2018-08-03T08:57:09.883Z,97364.00
2018-08-03T08:59:41.872Z,97367.00
2018-08-03T09:02:12.296Z,97358.00
2018-08-03T09:10:31.023Z,97355.00
2018-08-03T09:13:01.354Z,97349.00
2018-08-03T09:15:31.962Z,97353.00
2018-08-03T09:18:02.198Z,97347.00
2018-08-03T09:20:32.067Z,97347.00
2018-08-03T09:23:02.211Z,97342.00
2018-08-03T09:25:32.506Z,97342.00
2018-08-03T09:28:02.655Z,97338.00
2018-08-03T09:30:32.541Z,97336.00
2018-08-03T09:33:02.763Z,97339.00
2018-08-03T09:35:32.934Z,97330.00
2018-08-03T09:38:03.372Z,97331.00
2018-08-03T09:40:33.511Z,97330.00
2018-08-03T09:43:04.071Z,97322.00
2018-08-03T09:45:33.986Z,97319.00
2018-08-03T09:48:04.151Z,97317.00
2018-08-03T09:50:34.705Z,97314.00
2018-08-03T09:53:05.136Z,97309.00
2018-08-03T09:55:35.632Z,97306.00
2018-08-03T09:58:05.586Z,97304.00
2018-08-03T10:00:40.459Z,97307.00
2018-08-03T10:03:10.684Z,97304.00
2018-08-03T10:05:41.079Z,97299.00
2018-08-03T10:08:12.035Z,97297.00
2018-08-03T10:10:42.343Z,97294.00
2018-08-03T10:13:13.020Z,97295.00
2018-08-03T10:15:42.570Z,97296.00
2018-08-03T10:18:13.584Z,97285.00
2018-08-03T10:20:44.260Z,97284.00
2018-08-03T10:23:14.643Z,97284.00
2018-08-03T10:25:45.060Z,97279.00
2018-08-03T10:28:15.439Z,97275.00
2018-08-03T10:30:49.644Z,97277.00
2018-08-03T10:33:20.219Z,97274.00
2018-08-03T10:35:50.553Z,97276.00
2018-08-03T10:38:20.928Z,97273.00
2018-08-03T10:40:51.440Z,97279.00
2018-08-03T10:43:21.356Z,97276.00
2018-08-03T10:45:51.885Z,97273.00
2018-08-03T10:48:22.420Z,97272.00
2018-08-03T10:51:00.760Z,97269.00
2018-08-03T10:53:34.654Z,97271.00
2018-08-03T10:56:05.340Z,97263.00
2018-08-03T10:58:35.412Z,97264.00
2018-08-03T11:01:06.072Z,97257.00
2018-08-03T11:03:36.590Z,97255.00
2018-08-03T11:06:13.456Z,97257.00
2018-08-03T11:08:43.864Z,97245.00
2018-08-03T11:11:15.301Z,97246.00
2018-08-03T11:13:45.851Z,97246.00
2018-08-03T11:16:16.123Z,97241.00
2018-08-03T11:18:46.536Z,97238.00
2018-08-03T11:21:17.076Z,97238.00
2018-08-03T11:23:47.654Z,97232.00
2018-08-03T11:26:18.708Z,97237.00
2018-08-03T11:28:49.483Z,97232.00
2018-08-03T11:31:19.985Z,97236.00
2018-08-03T11:33:51.312Z,97231.00
2018-08-03T11:36:21.736Z,97223.00
2018-08-03T11:38:52.174Z,97221.00
2018-08-03T11:41:22.447Z,97222.00
2018-08-03T11:43:52.967Z,97219.00
2018-08-03T11:46:23.403Z,97212.00
2018-08-03T11:48:54.088Z,97218.00
2018-08-03T11:51:24.687Z,97220.00
2018-08-03T11:53:55.335Z,97224.00
2018-08-03T11:56:25.875Z,97220.00
2018-08-03T11:58:56.310Z,97211.00
2018-08-03T12:01:26.853Z,97217.00
2018-08-03T12:03:57.443Z,97215.00
2018-08-03T12:06:39.010Z,97210.00
2018-08-03T12:09:09.447Z,97209.00
2018-08-03T12:11:40.077Z,97203.00
2018-08-03T12:14:10.114Z,97206.00
2018-08-03T12:16:40.635Z,97199.00
2018-08-03T12:19:11.069Z,97199.00
2018-08-03T12:21:41.566Z,97196.00
2018-08-03T12:24:11.914Z,97200.00
2018-08-03T12:26:41.987Z,97189.00
2018-08-03T12:29:12.424Z,97187.00
2018-08-03T12:31:48.430Z,97192.00
2018-08-03T12:34:18.918Z,97183.00
2018-08-03T12:36:49.822Z,97182.00
2018-08-03T12:39:20.159Z,97175.00
2018-08-03T12:41:50.467Z,97178.00
2018-08-03T12:44:20.880Z,97172.00
2018-08-03T12:46:51.128Z,97172.00
2018-08-03T12:49:21.370Z,97174.00
2018-08-03T12:51:51.803Z,97172.00
2018-08-03T12:54:21.921Z,97180.00
2018-08-03T12:56:51.963Z,97168.00
2018-08-03T12:59:22.221Z,97169.00
2018-08-03T13:01:52.294Z,97173.00
2018-08-03T13:04:22.590Z,97174.00
2018-08-03T13:06:52.608Z,97164.00
2018-08-03T13:09:23.157Z,97161.00
2018-08-03T13:11:53.451Z,97158.00
2018-08-03T13:14:23.583Z,97150.00
2018-08-03T13:16:53.738Z,97159.00
2018-08-03T13:19:23.899Z,97163.00
2018-08-03T13:21:54.007Z,97159.00
2018-08-03T13:24:24.158Z,97157.00
2018-08-03T13:26:54.331Z,97154.00
2018-08-03T13:29:24.551Z,97148.00
2018-08-03T13:31:54.539Z,97152.00
2018-08-03T13:34:24.530Z,97149.00
2018-08-03T13:36:54.772Z,97141.00
2018-08-03T13:39:24.985Z,97143.00
2018-08-03T13:41:55.246Z,97145.00
2018-08-03T13:44:25.916Z,97142.00
2018-08-03T13:46:56.110Z,97139.00
2018-08-03T13:49:26.417Z,97133.00
2018-08-03T13:51:56.511Z,97131.00
2018-08-03T13:54:26.606Z,97141.00
2018-08-03T13:56:56.870Z,97136.00
2018-08-03T13:59:27.282Z,97142.00
2018-08-03T14:02:24.864Z,97134.00
2018-08-03T14:04:55.706Z,97133.00
2018-08-03T14:07:27.204Z,97129.00
2018-08-03T14:09:57.413Z,97131.00
2018-08-03T14:12:27.536Z,97131.00
2018-08-03T14:14:57.859Z,97122.00
2018-08-03T14:17:28.154Z,97121.00
2018-08-03T14:19:58.389Z,97119.00
2018-08-03T14:22:28.580Z,97112.00
2018-08-03T14:24:58.273Z,97110.00
2018-08-03T14:27:28.578Z,97112.00
2018-08-03T14:30:01.094Z,97111.00
2018-08-03T14:32:31.315Z,97107.00
2018-08-03T14:35:01.434Z,97107.00
2018-08-03T14:37:31.807Z,97108.00
2018-08-03T14:40:02.058Z,97112.00
2018-08-03T14:42:32.955Z,97117.00
2018-08-03T14:45:03.438Z,97112.00
2018-08-03T14:47:33.635Z,97116.00
2018-08-03T14:50:03.817Z,97107.00
2018-08-03T14:52:33.315Z,97112.00
2018-08-03T14:55:03.643Z,97107.00
2018-08-03T14:57:41.845Z,97106.00
2018-08-03T15:00:12.538Z,97102.00
2018-08-03T15:02:43.030Z,97099.00
2018-08-03T15:05:30.956Z,97098.00
2018-08-03T15:08:01.564Z,97101.00
2018-08-03T15:10:32.744Z,97095.00
2018-08-03T15:13:03.466Z,97095.00
2018-08-03T15:15:33.193Z,97088.00
2018-08-03T15:18:03.159Z,97094.00
2018-08-03T15:20:39.787Z,97088.00
2018-08-03T15:23:10.161Z,97092.00
2018-08-03T15:25:40.350Z,97092.00
2018-08-03T15:28:10.521Z,97092.00
2018-08-03T15:30:39.983Z,97080.00
2018-08-03T15:33:10.189Z,97076.00
2018-08-03T15:35:40.509Z,97074.00
2018-08-03T15:38:10.846Z,97076.00
2018-08-03T15:40:41.327Z,97070.00
2018-08-03T15:43:11.206Z,97068.00
2018-08-03T15:45:41.288Z,97070.00
2018-08-03T15:48:11.444Z,97067.00
2018-08-03T15:50:41.617Z,97062.00
2018-08-03T15:53:11.516Z,97062.00
2018-08-03T15:55:42.594Z,97070.00
2018-08-03T15:58:13.753Z,97066.00
2018-08-03T16:00:44.247Z,97060.00
2018-08-03T16:03:14.444Z,97059.00
2018-08-03T16:05:55.081Z,97053.00
2018-08-03T16:08:25.474Z,97048.00
2018-08-03T16:10:56.034Z,97044.00
2018-08-03T16:13:26.141Z,97039.00
2018-08-03T16:15:56.692Z,97035.00
2018-08-03T16:18:26.882Z,97036.00
2018-08-03T16:20:57.239Z,97036.00
2018-08-03T16:23:29.453Z,97038.00
2018-08-03T16:26:00.136Z,97037.00
2018-08-03T16:28:30.394Z,97032.00
2018-08-03T16:31:01.053Z,97034.00
2018-08-03T16:33:31.482Z,97036.00
2018-08-03T16:36:02.140Z,97037.00
2018-08-03T16:38:32.786Z,97035.00
2018-08-03T16:41:03.507Z,97036.00
2018-08-03T16:43:34.454Z,97038.00
2018-08-03T16:46:05.008Z,97033.00
2018-08-03T16:48:36.483Z,97038.00
2018-08-03T16:51:14.541Z,97034.00
2018-08-03T16:53:45.107Z,97035.00
2018-08-03T16:56:15.674Z,97038.00
2018-08-03T16:58:46.560Z,97035.00
2018-08-03T17:01:17.718Z,97038.00
2018-08-03T17:03:49.578Z,97040.00
2018-08-03T17:06:20.632Z,97046.00
2018-08-03T17:08:51.593Z,97044.00
2018-08-03T17:11:22.742Z,97041.00
2018-08-03T17:13:53.608Z,97047.00
2018-08-03T17:16:24.630Z,97045.00
2018-08-03T17:18:55.871Z,97046.00
2018-08-03T17:21:32.144Z,97045.00
2018-08-03T17:24:03.596Z,97047.00
2018-08-03T17:26:34.961Z,97046.00
2018-08-03T17:29:06.390Z,97051.00
2018-08-03T17:31:37.704Z,97051.00
2018-08-03T17:34:10.155Z,97048.00
2018-08-03T17:36:42.252Z,97054.00
2018-08-03T17:39:13.733Z,97055.00
2018-08-03T17:41:44.775Z,97056.00
2018-08-03T17:44:16.334Z,97052.00
2018-08-03T17:46:47.930Z,97056.00
2018-08-03T17:49:19.248Z,97054.00
2018-08-03T17:51:50.730Z,97063.00
2018-08-03T17:54:21.901Z,97063.00
2018-08-03T17:56:53.395Z,97066.00
2018-08-03T17:59:24.498Z,97066.00
2018-08-03T18:01:55.287Z,97063.00
2018-08-03T18:04:27.508Z,97063.00
2018-08-03T18:06:58.903Z,97066.00
2018-08-03T18:09:30.097Z,97064.00
2018-08-03T18:12:01.615Z,97070.00
2018-08-03T18:14:34.062Z,97078.00
2018-08-03T18:17:04.972Z,97075.00
2018-08-03T18:19:36.136Z,97076.00
2018-08-03T18:22:07.648Z,97070.00
2018-08-03T18:24:39.540Z,97082.00
2018-08-03T18:27:16.124Z,97086.00
2018-08-03T18:30:06.019Z,97086.00
2018-08-03T18:32:36.639Z,97085.00
2018-08-03T18:35:07.974Z,97080.00
2018-08-03T18:37:44.361Z,97085.00
2018-08-03T18:40:15.706Z,97087.00
2018-08-03T18:42:57.076Z,97088.00
2018-08-03T18:45:28.140Z,97093.00
2018-08-03T18:47:59.399Z,97091.00
2018-08-03T18:50:32.847Z,97098.00
2018-08-03T18:53:04.120Z,97099.00
2018-08-03T18:55:35.289Z,97104.00
2018-08-03T18:58:06.356Z,97101.00
2018-08-03T19:00:37.639Z,97104.00
2018-08-03T19:03:08.759Z,97108.00
2018-08-03T19:05:40.159Z,97110.00
2018-08-03T19:08:11.188Z,97108.00
2018-08-03T19:10:42.260Z,97112.00
2018-08-03T19:13:13.216Z,97111.00
2018-08-03T19:15:44.306Z,97108.00
2018-08-03T19:18:16.292Z,97113.00
2018-08-03T19:20:47.355Z,97116.00
2018-08-03T19:23:18.379Z,97117.00
2018-08-03T19:25:49.229Z,97122.00
2018-08-03T19:28:20.361Z,97122.00
2018-08-03T19:30:51.324Z,97130.00
2018-08-03T19:33:22.463Z,97128.00
2018-08-03T19:35:53.994Z,97129.00
2018-08-03T19:38:25.367Z,97135.00
2018-08-03T19:40:56.468Z,97134.00
2018-08-03T19:43:27.473Z,97134.00
2018-08-03T19:45:58.426Z,97137.00
2018-08-03T19:48:32.646Z,97137.00
2018-08-03T19:51:05.453Z,97137.00
2018-08-03T19:53:36.530Z,97140.00
2018-08-03T19:56:08.457Z,97139.00
2018-08-03T19:58:39.441Z,97139.00
2018-08-03T20:01:11.166Z,97142.00
2018-08-03T20:03:47.080Z,97144.00
2018-08-03T20:06:18.184Z,97141.00
2018-08-03T20:08:49.206Z,97139.00
2018-08-03T20:11:32.633Z,97137.00
2018-08-03T20:14:03.537Z,97132.00
2018-08-03T20:16:34.701Z,97136.00
2018-08-03T20:19:27.260Z,97143.00
2018-08-03T20:22:01.861Z,97137.00
2018-08-03T20:24:45.591Z,97138.00
2018-08-03T20:27:18.735Z,97141.00
2018-08-03T20:29:49.633Z,97144.00
2018-08-03T20:32:24.600Z,97140.00
2018-08-03T20:34:55.126Z,97143.00
2018-08-03T20:37:25.540Z,97147.00
2018-08-03T20:39:56.155Z,97151.00
2018-08-03T20:42:26.756Z,97152.00
2018-08-03T20:44:57.361Z,97148.00
2018-08-03T20:47:28.003Z,97146.00
2018-08-03T20:50:14.556Z,97146.00
2018-08-03T20:52:45.226Z,97149.00
2018-08-03T20:55:16.398Z,97145.00
2018-08-03T20:57:47.285Z,97150.00
2018-08-03T21:00:18.259Z,97148.00
2018-08-03T21:02:49.390Z,97157.00
2018-08-03T21:05:20.408Z,97160.00
2018-08-03T21:07:50.992Z,97156.00
2018-08-03T21:10:21.776Z,97158.00
2018-08-03T21:12:52.815Z,97161.00
2018-08-03T21:15:23.758Z,97156.00
2018-08-03T21:17:54.967Z,97154.00
2018-08-03T21:20:26.095Z,97156.00
2018-08-03T21:22:56.665Z,97160.00
2018-08-03T21:25:27.026Z,97160.00
2018-08-03T21:27:57.612Z,97163.00
2018-08-03T21:30:28.596Z,97168.00
2018-08-03T21:33:00.214Z,97166.00
2018-08-03T21:35:31.159Z,97164.00
2018-08-03T21:38:01.688Z,97166.00
2018-08-03T21:40:32.606Z,97167.00
2018-08-03T21:43:10.172Z,97171.00
2018-08-03T21:45:43.943Z,97172.00
2018-08-03T21:48:14.822Z,97171.00
2018-08-03T21:50:48.115Z,97169.00
2018-08-03T21:53:18.612Z,97172.00
2018-08-03T21:55:55.501Z,97171.00
2018-08-03T21:58:25.991Z,97169.00
2018-08-03T22:00:56.554Z,97165.00
2018-08-03T22:03:27.508Z,97168.00
2018-08-03T22:05:59.038Z,97164.00
2018-08-03T22:08:30.118Z,97165.00
2018-08-03T22:11:22.729Z,97162.00
2018-08-03T22:13:54.207Z,97165.00
2018-08-03T22:16:25.116Z,97160.00
2018-08-03T22:18:56.461Z,97164.00
2018-08-03T22:21:27.395Z,97164.00
2018-08-03T22:23:58.616Z,97166.00
2018-08-03T22:26:29.439Z,97162.00
2018-08-03T22:29:00.403Z,97167.00
2018-08-03T22:31:31.401Z,97165.00
2018-08-03T22:34:02.862Z,97163.00
2018-08-03T22:36:33.366Z,97170.00
2018-08-03T22:39:04.138Z,97164.00
2018-08-03T22:41:34.607Z,97162.00
2018-08-03T22:44:05.167Z,97172.00
2018-08-03T22:46:35.575Z,97167.00
2018-08-03T22:49:08.323Z,97167.00
2018-08-03T22:51:39.223Z,97164.00
2018-08-03T22:54:09.820Z,97167.00
2018-08-03T22:56:40.301Z,97168.00
2018-08-03T22:59:11.010Z,97156.00
2018-08-03T23:01:41.499Z,97158.00
2018-08-03T23:04:12.451Z,97152.00
2018-08-03T23:06:59.575Z,97152.00
2018-08-03T23:09:30.239Z,97156.00
2018-08-03T23:12:00.992Z,97158.00
2018-08-03T23:14:31.536Z,97162.00
2018-08-03T23:17:02.147Z,97166.00
2018-08-03T23:19:32.846Z,97166.00
2018-08-03T23:22:03.227Z,97161.00
2018-08-03T23:27:39.435Z,97158.00
2018-08-03T23:30:11.474Z,97160.00
2018-08-03T23:32:42.056Z,97158.00
2018-08-03T23:35:12.799Z,97161.00
2018-08-03T23:37:43.567Z,97153.00
2018-08-03T23:40:14.162Z,97149.00
2018-08-03T23:43:03.210Z,97152.00
2018-08-03T23:45:36.729Z,97152.00
2018-08-03T23:48:07.239Z,97158.00
2018-08-03T23:50:37.689Z,97157.00
2018-08-03T23:53:08.331Z,97151.00
2018-08-03T23:55:38.813Z,97144.00
2018-08-03T23:58:10.419Z,97145.00
